createdAt,value
2022-09-14T00:02:08.069Z,16.38
2022-09-14T00:04:36.964Z,16.29
2022-09-14T00:07:07.039Z,16.23
2022-09-14T00:09:35.300Z,16.22
2022-09-14T00:12:04.239Z,16.24
2022-09-14T00:14:32.242Z,16.23
2022-09-14T00:17:00.501Z,16.25
2022-09-14T00:19:30.372Z,16.27
2022-09-14T00:22:00.429Z,16.27
2022-09-14T00:24:31.324Z,16.23
2022-09-14T00:27:02.613Z,16.18
2022-09-14T00:29:31.809Z,16.19
2022-09-14T00:32:00.711Z,16.18
2022-09-14T00:36:11.248Z,16.09
2022-09-14T00:38:40.554Z,16.09
2022-09-14T00:41:12.150Z,16.07
2022-09-14T00:43:57.467Z,16.06
2022-09-14T00:46:27.768Z,16.06
2022-09-14T00:48:57.268Z,16.07
2022-09-14T00:51:27.774Z,16.08
2022-09-14T00:53:56.338Z,16.13
2022-09-14T00:56:24.376Z,16.08
2022-09-14T00:58:54.875Z,16.10
2022-09-14T01:01:23.165Z,16.11
2022-09-14T01:03:51.361Z,16.09
2022-09-14T01:06:31.205Z,16.08
2022-09-14T01:09:13.332Z,16.05
2022-09-14T01:11:53.714Z,16.06
2022-09-14T01:14:31.641Z,16.05
2022-09-14T01:17:10.175Z,16.03
2022-09-14T01:19:58.881Z,16.01
2022-09-14T01:22:36.474Z,16.01
2022-09-14T01:25:21.456Z,16.02
2022-09-14T01:27:52.923Z,15.99
2022-09-14T01:30:23.642Z,16.01
2022-09-14T01:32:57.600Z,16.00
2022-09-14T01:35:32.394Z,16.00
2022-09-14T01:38:04.131Z,15.98
2022-09-14T01:40:37.320Z,15.99
2022-09-14T01:43:11.358Z,15.99
2022-09-14T01:45:48.931Z,16.00
2022-09-14T01:48:21.640Z,16.03
2022-09-14T01:50:54.789Z,16.03
2022-09-14T01:53:34.595Z,16.05
2022-09-14T01:56:08.457Z,15.99
2022-09-14T01:58:43.259Z,16.07
2022-09-14T02:01:18.725Z,16.08
2022-09-14T02:03:52.991Z,16.12
2022-09-14T02:06:27.040Z,16.13
2022-09-14T02:08:55.613Z,16.14
2022-09-14T02:11:23.840Z,16.14
2022-09-14T02:13:53.390Z,16.17
2022-09-14T02:16:24.214Z,16.21
2022-09-14T02:18:52.573Z,16.22
2022-09-14T02:21:27.849Z,16.21
2022-09-14T02:23:56.021Z,16.20
2022-09-14T02:26:24.466Z,16.21
2022-09-14T02:28:56.084Z,16.22
2022-09-14T02:31:33.162Z,16.22
2022-09-14T02:34:10.419Z,16.23
2022-09-14T02:36:48.728Z,16.26
2022-09-14T02:39:28.153Z,16.24
2022-09-14T02:42:06.221Z,16.29
2022-09-14T02:44:45.294Z,16.26
2022-09-14T02:47:18.481Z,16.32
2022-09-14T02:49:55.623Z,16.29
2022-09-14T02:52:32.010Z,16.31
2022-09-14T02:55:08.717Z,16.34
2022-09-14T02:58:01.745Z,16.36
2022-09-14T03:00:32.951Z,16.34
2022-09-14T03:03:00.890Z,16.36
2022-09-14T03:05:31.244Z,16.38
2022-09-14T03:08:02.217Z,16.30
2022-09-14T03:10:34.125Z,16.38
2022-09-14T03:13:02.189Z,16.39
2022-09-14T03:15:32.038Z,16.37
2022-09-14T03:18:00.625Z,16.33
2022-09-14T03:20:33.729Z,16.27
2022-09-14T03:23:02.573Z,16.27
2022-09-14T03:25:36.874Z,16.26
2022-09-14T03:28:05.537Z,16.25
2022-09-14T03:30:38.389Z,16.19
2022-09-14T03:33:06.717Z,16.27
2022-09-14T03:35:34.803Z,16.26
2022-09-14T03:38:03.993Z,16.26
2022-09-14T03:40:32.531Z,16.26
2022-09-14T03:43:02.661Z,16.25
2022-09-14T03:45:30.874Z,16.28
2022-09-14T03:48:00.224Z,16.26
2022-09-14T03:50:28.761Z,16.24
2022-09-14T03:52:56.658Z,16.26
2022-09-14T03:55:24.747Z,16.27
2022-09-14T03:57:55.288Z,16.25
2022-09-14T04:00:24.466Z,16.28
2022-09-14T04:02:53.129Z,16.27
2022-09-14T04:05:23.096Z,16.24
2022-09-14T04:07:51.176Z,16.26
2022-09-14T04:10:19.416Z,16.23
2022-09-14T04:12:47.856Z,16.22
2022-09-14T04:15:16.077Z,16.20
2022-09-14T04:17:44.183Z,16.26
2022-09-14T04:20:14.594Z,16.21
2022-09-14T04:22:44.129Z,16.19
2022-09-14T04:25:12.171Z,16.20
2022-09-14T04:27:40.211Z,16.20
2022-09-14T04:30:09.208Z,16.21
2022-09-14T04:32:37.310Z,16.20
2022-09-14T04:35:05.907Z,16.20
2022-09-14T04:37:33.904Z,16.20
2022-09-14T04:40:03.975Z,16.21
2022-09-14T04:42:32.406Z,16.22
2022-09-14T04:45:00.518Z,16.22
2022-09-14T04:47:30.029Z,16.20
2022-09-14T04:49:58.396Z,16.23
2022-09-14T04:52:26.390Z,16.23
2022-09-14T04:54:57.147Z,16.24
2022-09-14T04:57:26.527Z,16.25
2022-09-14T04:59:55.084Z,16.23
2022-09-14T05:02:23.137Z,16.23
2022-09-14T05:04:51.513Z,16.24
2022-09-14T05:07:21.469Z,16.23
2022-09-14T05:09:49.642Z,16.26
2022-09-14T05:12:17.616Z,16.24
2022-09-14T05:14:47.979Z,16.28
2022-09-14T05:17:15.930Z,16.28
2022-09-14T05:19:46.669Z,16.32
2022-09-14T05:22:15.414Z,16.33
2022-09-14T05:24:45.784Z,16.30
2022-09-14T05:27:13.724Z,16.32
2022-09-14T05:29:41.950Z,16.34
2022-09-14T05:32:11.276Z,16.37
2022-09-14T05:37:05.287Z,16.26
2022-09-14T05:39:36.220Z,16.26
2022-09-14T05:42:04.465Z,16.28
2022-09-14T05:44:32.355Z,16.26
2022-09-14T05:47:00.601Z,16.20
2022-09-14T05:49:28.478Z,16.27
2022-09-14T05:51:56.725Z,16.30
2022-09-14T05:54:28.038Z,16.30
2022-09-14T05:56:56.183Z,16.33
2022-09-14T05:59:26.543Z,16.31
2022-09-14T06:01:54.862Z,16.34
2022-09-14T06:04:22.923Z,16.35
2022-09-14T06:07:07.941Z,16.36
2022-09-14T06:09:44.186Z,16.44
2022-09-14T06:12:14.718Z,16.46
2022-09-14T06:14:44.819Z,16.36
2022-09-14T06:17:13.277Z,16.54
2022-09-14T06:19:41.323Z,16.55
2022-09-14T06:22:09.541Z,16.55
2022-09-14T06:24:37.545Z,16.58
2022-09-14T06:27:09.096Z,16.57
2022-09-14T06:29:37.217Z,16.54
2022-09-14T06:32:05.662Z,16.54
2022-09-14T06:34:33.621Z,16.46
2022-09-14T06:37:04.310Z,16.59
2022-09-14T06:39:32.306Z,16.66
2022-09-14T06:42:00.582Z,16.67
2022-09-14T06:44:31.435Z,16.73
2022-09-14T06:46:59.807Z,16.78
2022-09-14T06:49:27.904Z,16.83
2022-09-14T06:51:57.598Z,16.82
2022-09-14T06:54:28.515Z,16.78
2022-09-14T06:56:56.704Z,16.84
2022-09-14T06:59:24.600Z,16.87
2022-09-14T07:01:56.890Z,16.87
2022-09-14T07:04:26.905Z,16.93
2022-09-14T07:06:59.707Z,16.95
2022-09-14T07:09:27.709Z,16.96
2022-09-14T07:11:56.035Z,17.10
2022-09-14T07:14:24.106Z,17.28
2022-09-14T07:16:52.457Z,17.40
2022-09-14T07:19:21.851Z,17.39
2022-09-14T07:21:50.341Z,17.34
2022-09-14T07:24:18.876Z,17.30
2022-09-14T07:26:47.101Z,17.22
2022-09-14T07:29:19.229Z,17.44
2022-09-14T07:31:51.564Z,17.35
2022-09-14T07:34:22.028Z,17.51
2022-09-14T07:36:50.189Z,17.39
2022-09-14T07:39:18.985Z,17.33
2022-09-14T07:41:47.357Z,17.32
2022-09-14T07:44:17.916Z,17.52
2022-09-14T07:46:47.092Z,17.54
2022-09-14T07:49:17.202Z,17.55
2022-09-14T07:51:47.069Z,17.73
2022-09-14T07:54:18.043Z,17.59
2022-09-14T07:56:46.702Z,17.77
2022-09-14T07:59:36.132Z,17.86
2022-09-14T08:02:07.508Z,18.16
2022-09-14T08:04:36.314Z,18.10
2022-09-14T08:07:06.032Z,17.99
2022-09-14T08:09:34.958Z,18.24
2022-09-14T08:12:05.837Z,18.11
2022-09-14T08:14:34.256Z,18.05
2022-09-14T08:17:02.351Z,17.87
2022-09-14T08:19:30.924Z,17.94
2022-09-14T08:21:58.940Z,17.83
2022-09-14T08:24:28.737Z,17.96
2022-09-14T08:26:56.796Z,17.91
2022-09-14T08:29:27.229Z,17.80
2022-09-14T08:31:55.283Z,17.93
2022-09-14T08:34:23.606Z,17.82
2022-09-14T08:36:51.749Z,17.81
2022-09-14T08:39:20.070Z,17.88
2022-09-14T08:41:54.295Z,17.91
2022-09-14T08:44:29.205Z,17.87
2022-09-14T08:47:02.840Z,18.02
2022-09-14T08:49:42.890Z,17.95
2022-09-14T08:52:22.658Z,17.87
2022-09-14T08:54:54.873Z,17.96
2022-09-14T08:57:31.213Z,17.92
2022-09-14T09:00:07.083Z,17.98
2022-09-14T09:02:49.798Z,18.06
2022-09-14T09:05:31.408Z,18.20
2022-09-14T09:08:05.570Z,18.07
2022-09-14T09:10:35.561Z,18.11
2022-09-14T09:13:08.099Z,18.26
2022-09-14T09:15:44.023Z,18.06
2022-09-14T09:18:16.288Z,18.15
2022-09-14T09:20:51.645Z,18.28
2022-09-14T09:23:22.173Z,18.05
2022-09-14T09:25:58.943Z,17.98
2022-09-14T09:28:30.061Z,18.03
2022-09-14T09:31:05.061Z,17.92
2022-09-14T09:33:53.372Z,18.04
2022-09-14T09:36:25.615Z,18.06
2022-09-14T09:38:53.633Z,18.09
2022-09-14T09:41:25.038Z,18.18
2022-09-14T09:44:02.764Z,18.09
2022-09-14T09:46:32.998Z,18.66
2022-09-14T09:49:05.054Z,18.76
2022-09-14T09:51:36.386Z,19.08
2022-09-14T09:54:17.961Z,19.67
2022-09-14T09:56:54.281Z,21.16
2022-09-14T09:59:29.615Z,22.30
2022-09-14T10:02:23.632Z,22.91
2022-09-14T10:05:02.944Z,24.01
2022-09-14T10:07:35.685Z,25.21
2022-09-14T10:10:08.675Z,26.46
2022-09-14T10:12:41.252Z,26.27
2022-09-14T10:15:18.028Z,25.59
2022-09-14T10:18:08.644Z,25.19
2022-09-14T10:20:37.745Z,25.51
2022-09-14T10:23:25.358Z,25.84
2022-09-14T10:25:54.995Z,26.04
2022-09-14T10:28:26.056Z,25.23
2022-09-14T10:31:00.680Z,25.59
2022-09-14T10:33:31.030Z,24.40
2022-09-14T10:38:16.985Z,25.38
2022-09-14T10:40:50.189Z,25.99
2022-09-14T10:43:27.320Z,27.02
2022-09-14T10:46:00.431Z,26.92
2022-09-14T10:48:52.024Z,26.77
2022-09-14T10:51:36.894Z,27.83
2022-09-14T10:54:18.097Z,27.32
2022-09-14T10:56:59.773Z,26.22
2022-09-14T10:59:36.581Z,26.06
2022-09-14T11:02:29.458Z,27.26
2022-09-14T11:05:21.147Z,28.74
2022-09-14T11:08:00.599Z,28.08
2022-09-14T11:10:39.232Z,28.77
2022-09-14T11:13:32.140Z,29.96
2022-09-14T11:16:11.595Z,29.64
2022-09-14T11:18:46.361Z,29.52
2022-09-14T11:21:22.154Z,29.04
2022-09-14T11:23:55.193Z,28.94
2022-09-14T11:26:31.663Z,28.45
2022-09-14T11:29:15.656Z,28.54
2022-09-14T11:32:10.100Z,27.65
2022-09-14T11:34:43.426Z,27.00
2022-09-14T11:37:15.188Z,27.01
2022-09-14T11:39:49.846Z,27.03
2022-09-14T11:42:24.029Z,26.77
2022-09-14T11:45:03.861Z,26.57
2022-09-14T11:47:38.288Z,26.70
2022-09-14T11:50:18.401Z,26.19
2022-09-14T11:53:03.574Z,26.25
2022-09-14T11:55:32.379Z,25.83
2022-09-14T11:58:05.457Z,25.11
2022-09-14T12:01:22.608Z,24.41
2022-09-14T12:04:06.761Z,24.41
2022-09-14T12:07:02.905Z,24.61
2022-09-14T12:09:42.601Z,24.53
2022-09-14T12:12:38.887Z,24.42
2022-09-14T12:15:23.086Z,24.07
2022-09-14T12:17:55.908Z,23.75
2022-09-14T12:20:38.849Z,23.80
2022-09-14T12:23:31.439Z,23.90
2022-09-14T12:26:13.105Z,23.85
2022-09-14T12:28:48.505Z,23.46
2022-09-14T12:31:36.014Z,23.35
2022-09-14T12:34:17.893Z,23.03
2022-09-14T12:37:27.323Z,22.99
2022-09-14T12:40:33.663Z,22.97
2022-09-14T12:43:50.351Z,22.73
2022-09-14T12:46:41.975Z,22.51
2022-09-14T12:49:35.721Z,22.38
2022-09-14T12:52:06.273Z,22.45
2022-09-14T12:54:52.465Z,22.43
2022-09-14T12:57:29.590Z,22.44
2022-09-14T13:00:07.327Z,22.45
2022-09-14T13:03:21.262Z,22.53
2022-09-14T13:05:52.562Z,22.54
2022-09-14T13:08:25.346Z,22.53
2022-09-14T13:10:54.275Z,22.70
2022-09-14T13:13:26.809Z,22.74
2022-09-14T13:15:57.652Z,22.95
2022-09-14T13:18:35.349Z,22.93
2022-09-14T13:21:18.642Z,23.07
2022-09-14T13:23:49.176Z,23.14
2022-09-14T13:26:20.713Z,23.33
2022-09-14T13:28:53.515Z,23.40
2022-09-14T13:31:28.502Z,23.28
2022-09-14T13:33:58.553Z,23.29
2022-09-14T13:36:29.666Z,23.05
2022-09-14T13:39:01.817Z,23.10
2022-09-14T13:41:32.124Z,23.03
2022-09-14T13:44:01.303Z,23.02
2022-09-14T13:46:31.808Z,22.98
2022-09-14T13:49:09.115Z,22.94
2022-09-14T13:51:37.058Z,22.88
2022-09-14T13:54:19.877Z,22.86
2022-09-14T13:57:08.218Z,22.91
2022-09-14T13:59:36.258Z,22.87
2022-09-14T14:02:14.956Z,22.79
2022-09-14T14:04:49.352Z,22.78
2022-09-14T14:07:21.078Z,22.79
2022-09-14T14:09:52.276Z,22.87
2022-09-14T14:12:26.625Z,22.88
2022-09-14T14:14:56.921Z,22.79
2022-09-14T14:17:37.669Z,22.64
2022-09-14T14:20:35.986Z,22.50
2022-09-14T14:23:21.291Z,22.32
2022-09-14T14:25:54.551Z,21.96
2022-09-14T14:28:25.706Z,21.73
2022-09-14T14:30:58.079Z,21.61
2022-09-14T14:33:26.704Z,21.39
2022-09-14T14:35:57.361Z,21.29
2022-09-14T14:38:26.176Z,21.34
2022-09-14T14:40:58.003Z,21.36
2022-09-14T14:43:28.205Z,21.39
2022-09-14T14:46:01.052Z,21.40
2022-09-14T14:48:31.624Z,21.44
2022-09-14T14:51:01.903Z,21.46
2022-09-14T14:53:30.121Z,21.41
2022-09-14T14:55:58.448Z,21.50
2022-09-14T14:58:29.294Z,21.52
2022-09-14T15:00:57.895Z,21.55
2022-09-14T15:03:26.230Z,21.63
2022-09-14T15:05:54.232Z,21.68
2022-09-14T15:08:26.044Z,21.64
2022-09-14T15:10:57.855Z,21.63
2022-09-14T15:13:28.692Z,21.74
2022-09-14T15:15:56.909Z,21.70
2022-09-14T15:18:25.203Z,21.74
2022-09-14T15:20:53.772Z,21.64
2022-09-14T15:23:22.055Z,21.67
2022-09-14T15:25:53.254Z,21.57
2022-09-14T15:28:21.267Z,21.43
2022-09-14T15:30:49.200Z,21.31
2022-09-14T15:33:20.196Z,21.36
2022-09-14T15:39:11.526Z,21.26
2022-09-14T15:41:42.291Z,21.27
2022-09-14T15:44:11.558Z,21.19
2022-09-14T15:46:40.175Z,21.26
2022-09-14T15:49:15.381Z,21.15
2022-09-14T15:51:44.017Z,21.22
2022-09-14T15:54:15.752Z,21.30
2022-09-14T15:56:43.631Z,21.34
2022-09-14T15:59:11.558Z,21.27
2022-09-14T16:01:39.524Z,21.28
2022-09-14T16:04:11.792Z,21.15
2022-09-14T16:06:46.377Z,20.99
2022-09-14T16:09:17.981Z,20.93
2022-09-14T16:11:45.881Z,20.84
2022-09-14T16:14:14.161Z,20.83
2022-09-14T16:16:42.426Z,20.84
2022-09-14T16:19:16.059Z,20.84
2022-09-14T16:21:50.394Z,20.72
2022-09-14T16:24:25.290Z,20.68
2022-09-14T16:26:53.329Z,20.68
2022-09-14T16:29:24.155Z,20.53
2022-09-14T16:31:52.985Z,20.54
2022-09-14T16:34:23.271Z,20.49
2022-09-14T16:36:54.231Z,20.39
2022-09-14T16:39:26.336Z,20.39
2022-09-14T16:41:57.303Z,20.29
2022-09-14T16:44:27.756Z,20.21
2022-09-14T16:46:59.430Z,20.15
2022-09-14T16:49:28.696Z,20.13
2022-09-14T16:52:00.907Z,20.06
2022-09-14T16:54:31.719Z,20.00
2022-09-14T16:57:01.173Z,19.96
2022-09-14T16:59:29.588Z,19.97
2022-09-14T17:01:57.777Z,19.99
2022-09-14T17:04:26.335Z,20.01
2022-09-14T17:06:55.992Z,19.97
2022-09-14T17:09:26.446Z,19.89
2022-09-14T17:11:57.559Z,19.88
2022-09-14T17:14:31.297Z,19.88
2022-09-14T17:16:59.785Z,19.95
2022-09-14T17:19:29.133Z,20.05
2022-09-14T17:21:57.105Z,20.10
2022-09-14T17:24:26.774Z,20.13
2022-09-14T17:27:00.829Z,20.15
2022-09-14T17:29:29.090Z,20.11
2022-09-14T17:32:00.007Z,20.07
2022-09-14T17:34:28.123Z,20.08
2022-09-14T17:36:56.074Z,20.06
2022-09-14T17:39:24.140Z,20.04
2022-09-14T17:41:52.227Z,20.00
2022-09-14T17:44:23.697Z,20.00
2022-09-14T17:46:53.351Z,19.67
2022-09-14T17:49:22.833Z,18.97
2022-09-14T17:51:54.134Z,18.48
2022-09-14T17:54:22.040Z,17.92
2022-09-14T17:56:53.297Z,17.61
2022-09-14T17:59:23.981Z,17.31
2022-09-14T18:01:52.292Z,17.19
2022-09-14T18:04:20.566Z,17.01
2022-09-14T18:06:51.934Z,16.92
2022-09-14T18:09:25.122Z,16.90
2022-09-14T18:11:57.263Z,16.81
2022-09-14T18:14:26.870Z,16.79
2022-09-14T18:16:55.061Z,16.77
2022-09-14T18:19:27.542Z,16.75
2022-09-14T18:21:55.485Z,16.73
2022-09-14T18:24:23.427Z,16.71
2022-09-14T18:26:51.594Z,16.72
2022-09-14T18:29:23.140Z,16.67
2022-09-14T18:31:53.314Z,16.65
2022-09-14T18:34:22.071Z,16.78
2022-09-14T18:36:52.099Z,16.73
2022-09-14T18:39:22.354Z,16.69
2022-09-14T18:41:52.055Z,16.70
2022-09-14T18:44:23.527Z,16.60
2022-09-14T18:46:53.265Z,16.66
2022-09-14T18:49:23.682Z,16.61
2022-09-14T18:51:52.161Z,16.59
2022-09-14T18:54:22.286Z,16.59
2022-09-14T18:56:55.085Z,16.55
2022-09-14T18:59:23.147Z,16.54
2022-09-14T19:01:51.446Z,16.55
2022-09-14T19:04:23.265Z,16.51
2022-09-14T19:06:53.760Z,16.51
2022-09-14T19:09:21.885Z,16.50
2022-09-14T19:11:50.061Z,16.50
2022-09-14T19:14:20.521Z,16.51
2022-09-14T19:16:50.484Z,16.44
2022-09-14T19:19:18.723Z,16.44
2022-09-14T19:21:48.135Z,16.55
2022-09-14T19:24:17.799Z,16.45
2022-09-14T19:26:47.624Z,16.41
2022-09-14T19:29:20.443Z,16.38
2022-09-14T19:31:51.487Z,16.35
2022-09-14T19:34:20.845Z,16.34
2022-09-14T19:36:53.595Z,16.45
2022-09-14T19:39:22.277Z,16.33
2022-09-14T19:41:50.395Z,16.32
2022-09-14T19:44:18.969Z,16.26
2022-09-14T19:46:51.663Z,16.31
2022-09-14T19:49:21.749Z,16.30
2022-09-14T19:51:54.286Z,16.24
2022-09-14T19:54:22.728Z,16.28
2022-09-14T19:56:50.792Z,16.35
2022-09-14T19:59:22.117Z,16.35
2022-09-14T20:01:50.894Z,16.32
2022-09-14T20:04:19.437Z,16.32
2022-09-14T20:06:48.458Z,16.33
2022-09-14T20:09:19.716Z,16.36
2022-09-14T20:11:49.647Z,16.34
2022-09-14T20:14:19.783Z,16.33
2022-09-14T20:16:52.039Z,16.34
2022-09-14T20:19:21.505Z,16.33
2022-09-14T20:21:51.729Z,16.31
2022-09-14T20:24:25.636Z,16.33
2022-09-14T20:26:57.281Z,16.40
2022-09-14T20:29:32.219Z,16.40
2022-09-14T20:32:03.867Z,16.34
2022-09-14T20:34:32.661Z,16.37
2022-09-14T20:40:08.812Z,16.31
2022-09-14T20:42:39.135Z,16.31
2022-09-14T20:45:09.310Z,16.39
2022-09-14T20:47:37.584Z,16.38
2022-09-14T20:50:06.934Z,16.37
2022-09-14T20:52:37.342Z,16.35
2022-09-14T20:55:08.464Z,16.35
2022-09-14T20:57:41.121Z,16.37
2022-09-14T21:00:10.827Z,16.38
2022-09-14T21:02:41.234Z,16.42
2022-09-14T21:05:11.954Z,16.41
2022-09-14T21:07:39.846Z,16.43
2022-09-14T21:10:12.106Z,16.45
2022-09-14T21:12:42.634Z,16.42
2022-09-14T21:15:12.123Z,16.41
2022-09-14T21:17:39.997Z,16.40
2022-09-14T21:20:09.334Z,16.34
2022-09-14T21:22:37.431Z,16.34
2022-09-14T21:25:06.224Z,16.32
2022-09-14T21:27:35.788Z,16.33
2022-09-14T21:30:07.331Z,16.42
2022-09-14T21:32:37.628Z,16.42
2022-09-14T21:35:06.413Z,16.38
2022-09-14T21:37:34.418Z,16.37
2022-09-14T21:40:06.057Z,16.36
2022-09-14T21:42:35.386Z,16.37
2022-09-14T21:45:06.636Z,16.41
2022-09-14T21:47:36.780Z,16.39
2022-09-14T21:50:05.944Z,16.34
2022-09-14T21:52:34.048Z,16.31
2022-09-14T21:55:02.305Z,16.29
2022-09-14T21:57:30.371Z,16.29
2022-09-14T22:00:05.993Z,16.29
2022-09-14T22:02:35.391Z,16.27
2022-09-14T22:05:06.208Z,16.23
2022-09-14T22:07:35.631Z,16.22
2022-09-14T22:10:03.832Z,16.22
2022-09-14T22:12:32.226Z,16.23
2022-09-14T22:15:00.183Z,16.24
2022-09-14T22:17:29.912Z,16.18
2022-09-14T22:20:00.649Z,16.22
2022-09-14T22:22:28.813Z,16.20
2022-09-14T22:24:58.887Z,16.21
2022-09-14T22:27:27.184Z,16.24
2022-09-14T22:29:55.431Z,16.30
2022-09-14T22:32:24.071Z,16.24
2022-09-14T22:34:53.354Z,16.21
2022-09-14T22:37:21.296Z,16.15
2022-09-14T22:39:49.647Z,16.16
2022-09-14T22:42:17.637Z,16.18
2022-09-14T22:44:47.786Z,16.22
2022-09-14T22:47:15.837Z,16.17
2022-09-14T22:49:43.834Z,16.21
2022-09-14T22:52:16.177Z,16.23
2022-09-14T22:54:44.318Z,16.23
2022-09-14T22:57:12.247Z,16.22
2022-09-14T22:59:40.467Z,16.21
2022-09-14T23:02:08.409Z,16.21
2022-09-14T23:04:36.690Z,16.20
2022-09-14T23:07:06.576Z,16.19
2022-09-14T23:09:39.236Z,16.25
2022-09-14T23:12:07.841Z,16.21
2022-09-14T23:14:35.788Z,16.21
2022-09-14T23:17:04.005Z,16.24
2022-09-14T23:19:31.960Z,16.26
2022-09-14T23:22:03.077Z,16.22
2022-09-14T23:24:33.555Z,16.20
2022-09-14T23:27:05.719Z,16.19
2022-09-14T23:29:33.991Z,16.19
2022-09-14T23:32:02.338Z,16.23
2022-09-14T23:34:30.405Z,16.23
2022-09-14T23:37:01.672Z,16.26
2022-09-14T23:39:30.539Z,16.29
2022-09-14T23:41:58.785Z,16.27
2022-09-14T23:44:30.657Z,16.24
2022-09-14T23:46:58.784Z,16.24
2022-09-14T23:49:26.951Z,16.22
2022-09-14T23:51:55.082Z,16.21
2022-09-14T23:54:23.159Z,16.20
2022-09-14T23:56:54.412Z,16.17
2022-09-14T23:59:22.372Z,16.17
